オスロ の空港の天気 - METARとTAF

オスロ空港 ( ENGM / OSL ) - ノルウェー アーケシュフース県オスロ
飛行場実況気象(Metar)
観測時間04/27 06:50 CEST (04/27 04:50 UTC)
風向・風速東 2m/s
視程10km以上
天気現象
全天を覆う雲 雲底高度 210m
気温4℃
湿度87%
気圧1002hPa
METARENGM 270450Z 09003KT 060V150 9999 OVC007 04/02 Q1002 NOSIG
過去の天気等 Google飛行場航空写真 Wunderground天気予報

過去48時間のMETAR

飛行場予報(TAF)
発表時間: -
27日4時 CEST ~ 27日14時 CEST に一時的に
視程3,000m
天気現象しゅう雨 もや
全天の8割程度の雲 雲底高度 120m
少しの積乱雲 雲底高度 610m
27日11時 CEST ~ 27日13時 CEST に徐々に
全天の8割程度の雲 雲底高度 610m
27日14時 CEST ~ 27日18時 CEST に一時的に
天気現象しゅう雨
少しの積乱雲 雲底高度 610m
全天の8割程度の雲 雲底高度 1,220m
AMD ENGM 2702/2724 18008KT 7000 OVC007
TEMPO 2702/2712 3000 SHRA BR BKN004 FEW020CB
BECMG 2709/2711 BKN020
TEMPO 2712/2716 SHRA FEW020CB BKN040